Time;durP1;ratioP1;P1;durP2;ratioP2;P2;SDS_P1;SDS_P2;PMS_P1;PMS_P2;Temp;Humidity;BMP_temperature;BMP_pressure;BME280_temperature;BME280_humidity;BME280_pressure;Samples;Min_cycle;Max_cycle;Signal;HPM_P1;HPM_P2
2023/09/02 00:01:12;;;;;;;0.20;0.20;;;;;;;17.70;100.00;100166.03;5071504;28;20154;-66
2023/09/02 00:03:38;;;;;;;0.20;0.20;;;;;;;17.67;100.00;100177.88;5070145;28;20029;-66
2023/09/02 00:06:03;;;;;;;0.20;0.20;;;;;;;17.66;100.00;100176.13;5069055;28;20029;-66
2023/09/02 00:08:29;;;;;;;0.20;0.20;;;;;;;17.67;100.00;100175.19;5074572;28;20472;-66
2023/09/02 00:10:54;;;;;;;0.30;0.30;;;;;;;17.65;100.00;100176.22;5075692;28;20067;-66
2023/09/02 00:13:19;;;;;;;0.30;0.30;;;;;;;17.69;100.00;100186.69;5071445;28;20035;-66
2023/09/02 00:15:45;;;;;;;0.25;0.25;;;;;;;17.70;100.00;100183.06;5089988;28;20027;-66
2023/09/02 00:18:10;;;;;;;0.30;0.30;;;;;;;17.78;100.00;100178.09;5091032;28;20027;-66
2023/09/02 00:20:36;;;;;;;0.20;0.20;;;;;;;17.77;100.00;100179.06;5090537;28;20111;-66
2023/09/02 00:23:01;;;;;;;0.30;0.30;;;;;;;17.74;100.00;100176.53;5087598;28;20380;-66
2023/09/02 00:25:27;;;;;;;0.20;0.20;;;;;;;17.73;100.00;100176.63;5089649;28;20076;-66
2023/09/02 00:27:52;;;;;;;0.20;0.20;;;;;;;17.72;100.00;100181.16;5083497;28;20028;-66
2023/09/02 00:30:18;;;;;;;0.20;0.20;;;;;;;17.67;100.00;100177.88;5069215;28;20111;-66
2023/09/02 00:32:43;;;;;;;0.20;0.20;;;;;;;17.64;100.00;100171.81;5087106;28;20496;-65
2023/09/02 00:35:09;;;;;;;0.20;0.20;;;;;;;17.70;100.00;100193.81;5087083;28;20024;-66
2023/09/02 00:37:35;;;;;;;0.28;0.28;;;;;;;17.66;100.00;100189.56;5082374;28;20138;-66
2023/09/02 00:40:00;;;;;;;0.20;0.20;;;;;;;17.55;100.00;100175.00;5089371;28;20060;-66
2023/09/02 00:42:29;;;;;;;0.30;0.30;;;;;;;17.61;100.00;100188.97;5073439;28;20020;-67
2023/09/02 00:44:54;;;;;;;0.30;0.30;;;;;;;17.60;100.00;100186.38;5068636;28;20028;-66
2023/09/02 00:47:20;;;;;;;0.20;0.20;;;;;;;17.56;100.00;100180.28;5089857;28;20467;-66
2023/09/02 00:49:45;;;;;;;0.25;0.25;;;;;;;17.48;100.00;100182.56;5088474;28;20028;-66
2023/09/02 00:52:10;;;;;;;0.28;0.28;;;;;;;17.50;100.00;100185.16;5090408;28;20054;-66
2023/09/02 00:54:36;;;;;;;0.20;0.20;;;;;;;17.42;100.00;100193.66;5089766;28;20027;-66
2023/09/02 00:57:02;;;;;;;0.30;0.30;;;;;;;17.31;100.00;100179.97;5089457;28;20126;-67
2023/09/02 00:59:27;;;;;;;0.20;0.20;;;;;;;17.33;100.00;100183.41;5089255;28;20081;-66
2023/09/02 01:01:55;;;;;;;0.30;0.30;;;;;;;17.33;100.00;100187.94;5089085;28;20416;-67
2023/09/02 01:04:21;;;;;;;0.30;0.30;;;;;;;17.30;100.00;100193.50;5088608;28;20107;-66
2023/09/02 01:06:47;;;;;;;0.30;0.30;;;;;;;17.29;100.00;100192.63;5089691;28;20463;-67
2023/09/02 01:09:13;;;;;;;0.30;0.30;;;;;;;17.31;100.00;100190.72;5088538;28;20048;-67
2023/09/02 01:11:39;;;;;;;0.30;0.30;;;;;;;17.39;100.00;100188.47;5088969;28;20094;-66
2023/09/02 01:14:05;;;;;;;0.20;0.20;;;;;;;17.31;100.00;100182.66;5090119;28;20035;-67
2023/09/02 01:16:31;;;;;;;0.30;0.30;;;;;;;17.24;100.00;100183.97;5089667;28;20093;-66
2023/09/02 01:18:58;;;;;;;0.30;0.30;;;;;;;17.17;100.00;100181.69;5089304;28;20032;-66
2023/09/02 01:21:41;;;;;;;0.20;0.20;;;;;;;17.10;100.00;100182.03;5085361;28;20388;-67
2023/09/02 01:24:18;;;;;;;;;;;;;;;17.13;100.00;100188.22;5089747;28;20028;-66
2023/09/02 01:27:09;;;;;;;0.20;0.20;;;;;;;17.06;100.00;100171.56;5088582;28;19950;-66
2023/09/02 01:29:55;;;;;;;0.30;0.30;;;;;;;17.11;100.00;100193.69;5087982;28;20159;-67
2023/09/02 01:32:22;;;;;;;0.20;0.20;;;;;;;17.12;100.00;100192.72;5077498;28;20032;-66
2023/09/02 01:34:48;;;;;;;0.30;0.30;;;;;;;17.11;100.00;100196.38;5088150;28;20028;-66
2023/09/02 01:37:17;;;;;;;0.20;0.20;;;;;;;17.09;100.00;100190.19;5087777;28;20032;-67
2023/09/02 01:39:46;;;;;;;0.25;0.25;;;;;;;17.09;100.00;100192.88;5087335;28;20031;-66
2023/09/02 01:42:13;;;;;;;0.30;0.30;;;;;;;17.07;100.00;100192.97;5088150;28;20077;-67
2023/09/02 01:44:40;;;;;;;0.20;0.20;;;;;;;17.11;100.00;100199.06;5085291;28;20028;-67
2023/09/02 01:47:06;;;;;;;0.20;0.20;;;;;;;17.20;100.00;100203.03;5069233;28;20037;-66
2023/09/02 01:49:32;;;;;;;0.20;0.20;;;;;;;17.25;100.00;100196.44;5069120;28;20163;-66
2023/09/02 01:51:59;;;;;;;0.22;0.22;;;;;;;17.29;100.00;100208.75;5086182;28;20032;-66
2023/09/02 01:54:25;;;;;;;0.20;0.20;;;;;;;17.31;100.00;100206.00;5088676;28;20047;-67
2023/09/02 01:56:50;;;;;;;0.30;0.30;;;;;;;17.31;100.00;100201.50;5088276;28;20089;-67
2023/09/02 01:59:16;;;;;;;0.20;0.20;;;;;;;17.38;100.00;100202.00;5088406;28;20019;-67
2023/09/02 02:01:41;;;;;;;0.30;0.30;;;;;;;17.32;100.00;100205.03;5088672;28;20035;-66
2023/09/02 02:04:32;;;;;;;0.30;0.30;;;;;;;17.30;100.00;100206.94;5066501;28;20024;-66
2023/09/02 02:07:08;;;;;;;0.20;0.20;;;;;;;17.26;100.00;100203.56;5088666;28;20024;-67
2023/09/02 02:09:43;;;;;;;0.20;0.20;;;;;;;17.20;100.00;100211.97;5088136;28;20051;-66
2023/09/02 02:12:08;;;;;;;0.25;0.25;;;;;;;17.13;100.00;100213.28;5069367;28;20413;-67
2023/09/02 02:14:34;;;;;;;0.30;0.30;;;;;;;17.09;100.00;100214.41;5086552;28;20044;-66
2023/09/02 02:17:04;;;;;;;0.30;0.30;;;;;;;17.03;100.00;100212.06;5087888;28;20038;-66
2023/09/02 02:19:30;;;;;;;0.30;0.30;;;;;;;17.00;100.00;100223.81;5085805;28;20438;-66
2023/09/02 02:21:57;;;;;;;0.25;0.25;;;;;;;16.90;100.00;100216.38;5087956;28;20023;-66
2023/09/02 02:24:23;;;;;;;0.30;0.30;;;;;;;16.88;100.00;100223.66;5086280;28;20024;-66
2023/09/02 02:26:48;;;;;;;0.20;0.20;;;;;;;16.87;100.00;100227.25;5084005;28;20034;-66
2023/09/02 02:29:13;;;;;;;0.20;0.20;;;;;;;16.84;100.00;100232.81;5084286;28;20111;-67
2023/09/02 02:31:39;;;;;;;0.20;0.20;;;;;;;16.81;100.00;100219.56;5076700;28;20028;-66
2023/09/02 02:34:04;;;;;;;0.30;0.30;;;;;;;16.78;100.00;100227.78;5084118;28;20032;-66
2023/09/02 02:36:29;;;;;;;0.20;0.20;;;;;;;16.74;100.00;100226.22;5088172;28;20027;-66
2023/09/02 02:38:55;;;;;;;0.30;0.30;;;;;;;16.70;100.00;100227.34;5086886;28;20107;-67
2023/09/02 02:41:20;;;;;;;0.30;0.30;;;;;;;16.68;100.00;100227.44;5085251;28;20447;-66
2023/09/02 02:43:46;;;;;;;0.30;0.30;;;;;;;16.65;100.00;100229.41;5088119;28;20031;-66
2023/09/02 02:46:11;;;;;;;0.30;0.30;;;;;;;16.64;100.00;100230.34;5088071;28;20865;-66
2023/09/02 02:48:36;;;;;;;0.20;0.20;;;;;;;16.61;100.00;100230.50;5087298;28;20067;-67
2023/09/02 02:51:02;;;;;;;0.30;0.30;;;;;;;16.62;100.00;100229.56;5087122;28;20024;-66
2023/09/02 02:53:28;;;;;;;0.30;0.30;;;;;;;16.61;100.00;100230.50;5088002;28;20086;-67
2023/09/02 02:55:53;;;;;;;0.30;0.30;;;;;;;16.62;100.00;100226.88;5086575;28;20110;-66
2023/09/02 02:58:18;;;;;;;0.20;0.20;;;;;;;16.59;100.00;100227.06;5088043;28;20024;-67
2023/09/02 03:00:46;;;;;;;0.30;0.30;;;;;;;16.59;100.00;100229.75;5087650;28;20078;-66
2023/09/02 03:03:12;;;;;;;0.30;0.30;;;;;;;16.57;100.00;100228.94;5074922;28;20091;-66
2023/09/02 03:05:39;;;;;;;0.30;0.30;;;;;;;16.54;100.00;100237.19;5087278;28;20035;-67
2023/09/02 03:08:09;;;;;;;0.30;0.30;;;;;;;16.54;100.00;100234.50;5088009;28;20134;-67
2023/09/02 03:10:35;;;;;;;0.30;0.30;;;;;;;16.55;100.00;100236.22;5086511;28;20034;-66
2023/09/02 03:13:05;;;;;;;0.25;0.25;;;;;;;16.54;100.00;100240.72;5086963;28;20472;-66
2023/09/02 03:15:31;;;;;;;0.30;0.30;;;;;;;16.57;100.00;100234.31;5087091;28;20835;-66
2023/09/02 03:17:56;;;;;;;0.30;0.30;;;;;;;16.52;100.00;100241.75;5087239;28;20123;-66
2023/09/02 03:20:22;;;;;;;0.30;0.30;;;;;;;16.52;100.00;100244.44;5086639;28;20032;-67
2023/09/02 03:22:47;;;;;;;0.30;0.30;;;;;;;16.36;100.00;100225.53;5088025;28;20114;-66
2023/09/02 03:25:13;;;;;;;0.30;0.30;;;;;;;16.53;100.00;100249.72;5086884;28;20458;-67
2023/09/02 03:27:39;;;;;;;0.30;0.30;;;;;;;16.56;100.00;100254.06;5088059;28;20028;-66
2023/09/02 03:30:06;;;;;;;0.30;0.30;;;;;;;16.55;100.00;100257.69;5090897;28;20103;-66
2023/09/02 03:32:32;;;;;;;0.30;0.30;;;;;;;16.50;100.00;100259.75;5089480;28;20031;-66
2023/09/02 03:34:57;;;;;;;0.30;0.30;;;;;;;16.50;100.00;100251.69;5090455;28;20031;-67
2023/09/02 03:37:23;;;;;;;0.30;0.30;;;;;;;16.55;100.00;100253.22;5083113;28;20318;-66
2023/09/02 03:39:49;;;;;;;0.30;0.30;;;;;;;16.60;100.00;100255.63;5070127;28;20479;-66
2023/09/02 03:42:14;;;;;;;0.30;0.30;;;;;;;16.58;100.00;100254.84;5081225;28;20124;-66
2023/09/02 03:44:39;;;;;;;0.30;0.30;;;;;;;16.52;100.00;100247.13;5090239;28;20028;-66
2023/09/02 03:47:05;;;;;;;0.30;0.30;;;;;;;16.47;100.00;100250.06;5091801;28;20131;-67
2023/09/02 03:49:30;;;;;;;0.30;0.30;;;;;;;16.48;100.00;100253.59;5089824;28;20032;-66
2023/09/02 03:51:55;;;;;;;0.30;0.30;;;;;;;16.51;100.00;100256.13;5089888;28;20455;-66
2023/09/02 03:54:21;;;;;;;0.30;0.30;;;;;;;16.49;100.00;100252.66;5089143;28;20043;-66
2023/09/02 03:56:46;;;;;;;0.30;0.30;;;;;;;16.42;100.00;100245.84;5087694;28;20024;-66
2023/09/02 03:59:12;;;;;;;0.30;0.30;;;;;;;16.46;100.00;100255.47;5090329;28;20020;-66
2023/09/02 04:01:37;;;;;;;0.30;0.30;;;;;;;16.38;100.00;100263.03;5089154;28;20044;-66
2023/09/02 04:04:03;;;;;;;0.30;0.30;;;;;;;16.31;100.00;100253.59;5089363;28;20030;-66
2023/09/02 04:06:29;;;;;;;0.22;0.22;;;;;;;16.31;100.00;100253.59;5090504;28;20036;-67
2023/09/02 04:08:54;;;;;;;0.30;0.30;;;;;;;16.35;100.00;100253.34;5089980;28;20109;-66
2023/09/02 04:11:20;;;;;;;0.30;0.30;;;;;;;16.35;100.00;100255.16;5089349;28;20379;-66
2023/09/02 04:13:46;;;;;;;0.30;0.30;;;;;;;16.29;100.00;100250.97;5077772;28;20032;-67
2023/09/02 04:16:11;;;;;;;0.30;0.30;;;;;;;16.32;100.00;100250.84;5075161;28;20091;-66
2023/09/02 04:18:37;;;;;;;0.30;0.30;;;;;;;16.31;100.00;100237.50;5089562;28;20504;-66
2023/09/02 04:21:03;;;;;;;0.30;0.30;;;;;;;16.26;100.00;100237.72;5089558;28;20028;-66
2023/09/02 04:23:30;;;;;;;0.30;0.30;;;;;;;16.20;100.00;100239.84;5087543;28;20024;-66
2023/09/02 04:25:57;;;;;;;0.30;0.30;;;;;;;16.18;100.00;100242.59;5085927;28;20407;-66
2023/09/02 04:28:23;;;;;;;0.30;0.30;;;;;;;16.22;100.00;100243.31;5090045;28;20039;-66
2023/09/02 04:30:49;;;;;;;0.30;0.30;;;;;;;16.18;100.00;100247.09;5089821;28;20483;-67
2023/09/02 04:33:18;;;;;;;0.30;0.30;;;;;;;16.14;100.00;100240.16;5086597;28;20067;-66
2023/09/02 04:35:47;;;;;;;0.30;0.30;;;;;;;16.15;100.00;100247.25;5079192;28;20038;-67
2023/09/02 04:38:14;;;;;;;0.30;0.30;;;;;;;16.18;100.00;100241.72;5071945;28;20403;-66
2023/09/02 04:40:40;;;;;;;0.30;0.30;;;;;;;16.18;100.00;100244.41;5089836;28;20035;-66
2023/09/02 04:43:07;;;;;;;0.30;0.30;;;;;;;16.16;100.00;100243.66;5090473;28;20020;-67
2023/09/02 04:45:34;;;;;;;0.30;0.30;;;;;;;16.17;100.00;100250.75;5088743;28;20070;-66
2023/09/02 04:48:00;;;;;;;0.30;0.30;;;;;;;16.23;100.00;100245.03;5089822;28;20107;-66
2023/09/02 04:50:25;;;;;;;0.32;0.32;;;;;;;16.18;100.00;100247.09;5088959;28;20051;-66
2023/09/02 04:52:52;;;;;;;0.30;0.30;;;;;;;16.20;100.00;100253.25;5088048;28;20134;-66
2023/09/02 04:55:19;;;;;;;0.30;0.30;;;;;;;16.14;100.00;100246.41;5086185;28;20031;-67
2023/09/02 04:57:45;;;;;;;0.30;0.30;;;;;;;16.09;100.00;100252.94;5070327;28;20044;-66
2023/09/02 05:00:12;;;;;;;0.30;0.30;;;;;;;16.03;100.00;100253.28;5071412;28;20028;-66
2023/09/02 05:02:37;;;;;;;0.20;0.20;;;;;;;16.00;100.00;100258.78;5087179;28;20833;-66
2023/09/02 05:05:03;;;;;;;0.20;0.20;;;;;;;15.93;100.00;100257.38;5089274;28;20028;-66
2023/09/02 05:07:28;;;;;;;0.30;0.30;;;;;;;15.87;100.00;100249.63;5088484;28;20058;-67
2023/09/02 05:09:54;;;;;;;0.30;0.30;;;;;;;15.89;100.00;100256.66;5089174;28;20032;-66
2023/09/02 05:12:20;;;;;;;0.30;0.30;;;;;;;15.94;100.00;100257.28;5087940;28;20060;-66
2023/09/02 05:14:45;;;;;;;0.22;0.22;;;;;;;16.00;100.00;100266.81;5087986;28;20813;-66
2023/09/02 05:17:11;;;;;;;0.30;0.30;;;;;;;16.01;100.00;100256.03;5088173;28;20028;-66
2023/09/02 05:19:36;;;;;;;0.30;0.30;;;;;;;16.17;100.00;100256.09;5088598;28;20062;-66
2023/09/02 05:22:03;;;;;;;0.30;0.30;;;;;;;16.22;100.00;100264.78;5087165;28;20126;-66
2023/09/02 05:24:28;;;;;;;0.30;0.30;;;;;;;16.31;100.00;100269.72;5089062;28;20020;-66
2023/09/02 05:26:54;;;;;;;0.30;0.30;;;;;;;16.35;100.00;100268.56;5089616;28;20034;-65
2023/09/02 05:29:19;;;;;;;0.30;0.30;;;;;;;16.42;100.00;100283.44;5070687;28;20069;-65
2023/09/02 05:31:45;;;;;;;0.30;0.30;;;;;;;16.41;100.00;100277.19;5088931;28;20479;-66
2023/09/02 05:34:10;;;;;;;0.30;0.30;;;;;;;16.48;100.00;100285.81;5086741;28;20020;-65
2023/09/02 05:36:36;;;;;;;0.30;0.30;;;;;;;16.47;100.00;100292.16;5089866;28;20032;-65
2023/09/02 05:39:01;;;;;;;0.30;0.30;;;;;;;16.55;100.00;100297.97;5088651;28;20495;-66
2023/09/02 05:41:28;;;;;;;0.30;0.30;;;;;;;16.57;100.00;100296.94;5088951;28;20107;-66
2023/09/02 05:43:53;;;;;;;0.30;0.30;;;;;;;16.73;100.00;100299.69;5088927;28;20023;-66
2023/09/02 05:46:19;;;;;;;0.30;0.30;;;;;;;16.80;100.00;100298.44;5086481;28;20035;-66
2023/09/02 05:48:44;;;;;;;0.30;0.30;;;;;;;16.92;100.00;100311.19;5088843;28;20024;-66
2023/09/02 05:51:09;;;;;;;0.30;0.30;;;;;;;17.06;100.00;100308.63;5082540;28;20124;-67
2023/09/02 05:53:35;;;;;;;0.30;0.30;;;;;;;17.20;100.00;100314.13;5086286;28;20032;-66
2023/09/02 05:56:00;;;;;;;0.30;0.30;;;;;;;17.31;100.00;100311.72;5089063;28;20032;-66
2023/09/02 05:58:27;;;;;;;0.30;0.30;;;;;;;17.41;100.00;100310.25;5088325;28;20111;-66
2023/09/02 06:00:52;;;;;;;0.30;0.30;;;;;;;17.49;100.00;100313.44;5087396;28;20700;-66
2023/09/02 06:03:18;;;;;;;0.30;0.30;;;;;;;17.58;100.00;100302.13;5087851;28;20111;-66
2023/09/02 06:05:43;;;;;;;0.30;0.30;;;;;;;17.64;100.00;100311.69;5085507;28;20032;-66
2023/09/02 06:08:09;;;;;;;0.30;0.30;;;;;;;17.68;100.00;100318.63;5080199;28;20047;-66
2023/09/02 06:10:35;;;;;;;0.30;0.30;;;;;;;17.81;100.00;100315.16;5088611;28;20111;-66
2023/09/02 06:13:00;;;;;;;0.30;0.30;;;;;;;17.93;100.00;100311.75;5086852;28;20547;-65
2023/09/02 06:15:26;;;;;;;0.30;0.30;;;;;;;18.12;100.00;100320.47;5085744;28;20024;-66
2023/09/02 06:17:51;;;;;;;0.20;0.20;;;;;;;18.41;100.00;100320.63;5084666;28;20369;-66
2023/09/02 06:20:20;;;;;;;0.20;0.20;;;;;;;18.76;100.00;100331.03;5087444;28;20143;-66
2023/09/02 06:22:45;;;;;;;0.30;0.30;;;;;;;19.00;100.00;100336.72;5088828;28;20482;-66
2023/09/02 06:25:11;;;;;;;0.30;0.30;;;;;;;19.20;100.00;100329.13;5071763;28;20028;-66
2023/09/02 06:27:37;;;;;;;0.28;0.28;;;;;;;19.29;100.00;100298.06;5077737;28;20058;-66
2023/09/02 06:30:03;;;;;;;0.22;0.22;;;;;;;19.52;100.00;100329.84;5087824;28;20020;-66
2023/09/02 06:32:28;;;;;;;0.20;0.20;;;;;;;19.65;100.00;100325.38;5070139;28;20480;-66
2023/09/02 06:34:54;;;;;;;0.20;0.20;;;;;;;19.97;100.00;100334.94;5087283;28;20111;-65
2023/09/02 06:37:19;;;;;;;0.28;0.28;;;;;;;20.22;100.00;100331.50;5087807;28;20031;-65
2023/09/02 06:39:45;;;;;;;0.20;0.20;;;;;;;20.37;100.00;100350.25;5087951;28;20525;-66
2023/09/02 06:42:10;;;;;;;0.20;0.20;;;;;;;20.55;100.00;100346.31;5083494;28;20125;-66
2023/09/02 06:44:36;;;;;;;0.20;0.20;;;;;;;20.68;100.00;100352.59;5084135;28;20028;-66
2023/09/02 06:47:01;;;;;;;0.20;0.20;;;;;;;20.86;100.00;100354.03;5071013;28;20523;-66
2023/09/02 06:49:27;;;;;;;0.20;0.20;;;;;;;20.87;100.00;100358.47;5084745;28;20471;-66
2023/09/02 06:51:52;;;;;;;0.20;0.20;;;;;;;20.91;100.00;100360.00;5086544;28;20032;-66
2023/09/02 06:54:18;;;;;;;0.20;0.20;;;;;;;20.90;99.62;100360.09;5086233;28;20485;-66
2023/09/02 06:56:44;;;;;;;0.20;0.20;;;;;;;20.92;99.37;100360.88;5076374;28;20288;-66
2023/09/02 06:59:10;;;;;;;0.20;0.20;;;;;;;21.00;99.39;100371.19;5083535;28;20364;-66
2023/09/02 07:01:35;;;;;;;0.20;0.20;;;;;;;21.46;100.00;100365.13;5084787;28;20028;-66
2023/09/02 07:04:01;;;;;;;0.20;0.20;;;;;;;22.22;99.54;100368.53;5070482;28;20110;-66
2023/09/02 07:06:26;;;;;;;0.10;0.10;;;;;;;23.20;96.93;100369.91;5090502;28;20032;-65
2023/09/02 07:08:52;;;;;;;0.20;0.20;;;;;;;23.75;89.06;100365.53;5089018;28;20040;-66
2023/09/02 07:11:17;;;;;;;0.15;0.15;;;;;;;24.30;84.40;100362.75;5089505;28;20036;-65
2023/09/02 07:13:45;;;;;;;0.20;0.20;;;;;;;24.47;80.85;100375.78;5089577;28;20035;-66
2023/09/02 07:16:11;;;;;;;0.20;0.20;;;;;;;24.48;80.28;100372.09;5090645;28;20028;-66
2023/09/02 07:18:37;;;;;;;0.20;0.20;;;;;;;24.59;79.56;100369.31;5082334;28;20035;-66
2023/09/02 07:21:04;;;;;;;0.20;0.20;;;;;;;24.67;79.41;100377.69;5076118;28;20024;-65
2023/09/02 07:23:31;;;;;;;0.20;0.20;;;;;;;24.74;78.27;100373.50;5078748;28;20012;-65
2023/09/02 07:25:59;;;;;;;0.20;0.20;;;;;;;24.53;76.63;100380.69;5080307;28;20024;-65
2023/09/02 07:28:26;;;;;;;0.10;0.10;;;;;;;24.47;77.98;100375.78;5082158;28;20028;-65
2023/09/02 07:30:51;;;;;;;0.10;0.10;;;;;;;24.52;78.19;100373.53;5083691;28;20051;-65
2023/09/02 07:33:16;;;;;;;0.10;0.10;;;;;;;24.36;77.92;100384.00;5078684;28;20036;-66
2023/09/02 07:35:42;;;;;;;0.10;0.10;;;;;;;24.34;78.60;100385.97;5082296;28;20071;-66
2023/09/02 07:38:07;;;;;;;0.10;0.10;;;;;;;24.54;78.01;100387.88;5080129;28;20089;-66
2023/09/02 07:40:33;;;;;;;0.10;0.10;;;;;;;24.78;78.44;100391.28;5081649;28;20368;-65
2023/09/02 07:43:02;;;;;;;0.10;0.10;;;;;;;25.21;76.33;100394.75;5079760;28;20031;-65
2023/09/02 07:45:28;;;;;;;0.10;0.10;;;;;;;25.25;75.05;100390.78;5072322;28;20039;-65
2023/09/02 07:47:54;;;;;;;0.10;0.10;;;;;;;25.13;74.27;100391.84;5073761;28;20028;-66
2023/09/02 07:50:20;;;;;;;0.10;0.10;;;;;;;25.19;74.50;100402.19;5080060;28;20031;-66
2023/09/02 07:52:45;;;;;;;0.10;0.10;;;;;;;25.11;74.95;100393.81;5075118;28;20028;-65
2023/09/02 07:55:11;;;;;;;0.10;0.10;;;;;;;25.21;74.95;100408.38;5086097;28;20111;-66
2023/09/02 07:57:36;;;;;;;0.10;0.10;;;;;;;25.33;74.10;100392.81;5079261;28;20028;-65
2023/09/02 08:00:02;;;;;;;0.10;0.10;;;;;;;25.39;73.76;100382.28;5069134;28;20449;-66
2023/09/02 08:02:28;;;;;;;0.10;0.10;;;;;;;25.76;73.65;100390.78;5077399;28;20231;-66
2023/09/02 08:04:53;;;;;;;0.10;0.10;;;;;;;26.04;72.07;100383.75;5079112;28;20350;-66
2023/09/02 08:07:19;;;;;;;0.10;0.10;;;;;;;26.24;70.66;100391.00;5073870;28;20036;-66
2023/09/02 08:09:47;;;;;;;0.10;0.10;;;;;;;26.66;69.46;100395.22;5068559;28;20527;-66
2023/09/02 08:12:12;;;;;;;0.10;0.10;;;;;;;26.91;67.84;100397.41;5070160;28;20662;-66
2023/09/02 08:14:38;;;;;;;0.10;0.10;;;;;;;27.25;66.80;100390.47;5073167;28;21602;-65
2023/09/02 08:17:03;;;;;;;0.10;0.10;;;;;;;27.30;64.83;100393.66;5079895;28;20031;-65
2023/09/02 08:19:32;;;;;;;0.10;0.10;;;;;;;27.35;64.54;100390.50;5078015;28;20026;-66
2023/09/02 08:21:58;;;;;;;0.10;0.10;;;;;;;27.60;62.89;100393.44;5085762;28;20023;-65
2023/09/02 08:24:23;;;;;;;0.05;0.05;;;;;;;27.89;63.14;100396.06;5077850;28;20471;-65
2023/09/02 08:26:48;;;;;;;0.10;0.10;;;;;;;28.34;61.41;100400.59;5075142;28;20096;-66
2023/09/02 08:29:14;;;;;;;0.03;0.03;;;;;;;28.77;59.76;100399.91;5088891;28;20040;-66
2023/09/02 08:31:39;;;;;;;0.05;0.05;;;;;;;28.98;59.02;100396.84;5087333;28;20516;-66
2023/09/02 08:34:05;;;;;;;0.00;0.00;;;;;;;29.13;57.84;100403.50;5088706;28;20046;-66
2023/09/02 08:36:30;;;;;;;0.10;0.10;;;;;;;29.27;57.12;100402.94;5081160;28;20470;-65
2023/09/02 08:38:55;;;;;;;0.10;0.10;;;;;;;29.35;57.47;100400.25;5084045;28;20024;-66
2023/09/02 08:41:25;;;;;;;0.10;0.10;;;;;;;28.97;56.60;100403.31;5086637;28;20138;-65
2023/09/02 08:43:55;;;;;;;0.03;0.03;;;;;;;28.79;59.11;100403.34;5077097;28;20040;-65
2023/09/02 08:46:25;;;;;;;0.00;0.00;;;;;;;29.11;58.83;100403.66;5078136;28;20027;-66
2023/09/02 08:48:53;;;;;;;0.10;0.10;;;;;;;29.38;58.93;100406.28;5076259;28;20456;-66
2023/09/02 08:51:18;;;;;;;0.10;0.10;;;;;;;29.43;57.11;100397.56;5067856;28;20023;-66
2023/09/02 08:53:45;;;;;;;0.08;0.08;;;;;;;29.89;57.17;100410.91;5081875;28;20039;-66
2023/09/02 08:56:11;;;;;;;0.08;0.08;;;;;;;29.95;54.87;100410.25;5087182;28;20062;-66
2023/09/02 08:58:40;;;;;;;0.00;0.00;;;;;;;30.03;55.39;100412.19;5087475;28;20028;-66
2023/09/02 09:01:06;;;;;;;0.00;0.00;;;;;;;30.22;54.41;100406.44;5085675;28;20189;-66
2023/09/02 09:03:33;;;;;;;0.00;0.00;;;;;;;30.04;53.44;100420.25;5087116;28;20486;-66
2023/09/02 09:06:02;;;;;;;0.03;0.03;;;;;;;30.13;53.72;100408.28;5086016;28;20837;-66
2023/09/02 09:08:30;;;;;;;0.00;0.00;;;;;;;30.14;53.83;100415.50;5068547;28;20079;-66
2023/09/02 09:10:56;;;;;;;0.00;0.00;;;;;;;30.06;53.41;100415.47;5087207;28;20055;-66
2023/09/02 09:13:24;;;;;;;0.00;0.00;;;;;;;30.57;52.37;100415.34;5086939;28;20024;-66
2023/09/02 09:15:51;;;;;;;0.00;0.00;;;;;;;30.76;52.64;100411.44;5086471;28;20032;-66
2023/09/02 09:18:18;;;;;;;0.00;0.00;;;;;;;31.04;53.11;100403.78;5086152;28;20035;-66
2023/09/02 09:20:43;;;;;;;0.00;0.00;;;;;;;31.13;49.34;100405.50;5087001;28;20551;-66
2023/09/02 09:23:09;;;;;;;0.00;0.00;;;;;;;30.86;49.81;100393.81;5088121;28;20043;-66
2023/09/02 09:25:37;;;;;;;0.00;0.00;;;;;;;30.30;51.70;100404.63;5086082;28;20038;-66
2023/09/02 09:28:11;;;;;;;0.08;0.08;;;;;;;30.74;51.04;100397.88;5086783;28;20023;-66
2023/09/02 09:30:36;;;;;;;0.00;0.00;;;;;;;31.12;50.68;100399.13;5083944;28;20103;-66
2023/09/02 09:33:05;;;;;;;0.00;0.00;;;;;;;31.41;50.07;100395.88;5086694;28;20026;-66
2023/09/02 09:35:31;;;;;;;0.00;0.00;;;;;;;31.81;48.35;100401.31;5051589;28;20035;-65
2023/09/02 09:37:57;;;;;;;0.00;0.00;;;;;;;32.13;50.04;100399.34;5078731;28;20038;-65
2023/09/02 09:40:34;;;;;;;0.00;0.00;;;;;;;32.48;48.81;100398.00;5087160;28;20424;-66
2023/09/02 09:43:01;;;;;;;0.00;0.00;;;;;;;32.35;46.67;100400.44;5086188;28;20731;-65
2023/09/02 09:45:29;;;;;;;0.00;0.00;;;;;;;32.10;47.29;100401.59;5085466;28;20043;-65
2023/09/02 09:47:59;;;;;;;0.00;0.00;;;;;;;31.64;49.90;100405.13;5083806;28;20089;-65
2023/09/02 09:50:27;;;;;;;0.00;0.00;;;;;;;31.39;48.97;100409.81;5077626;28;20042;-66
2023/09/02 09:53:04;;;;;;;0.00;0.00;;;;;;;31.35;50.57;100407.59;5082121;28;20032;-66
2023/09/02 09:55:30;;;;;;;0.00;0.00;;;;;;;31.87;47.17;100408.91;5077736;28;20031;-65
2023/09/02 09:57:57;;;;;;;0.00;0.00;;;;;;;32.24;48.46;100405.50;5085486;28;20028;-66
2023/09/02 10:00:23;;;;;;;0.00;0.00;;;;;;;32.47;48.20;100396.25;5085237;28;20111;-66
2023/09/02 10:02:56;;;;;;;0.00;0.00;;;;;;;32.80;46.26;100402.47;5078403;28;20034;-66
2023/09/02 10:05:29;;;;;;;0.00;0.00;;;;;;;32.80;45.90;100405.22;5078366;28;20042;-66
2023/09/02 10:08:02;;;;;;;0.00;0.00;;;;;;;32.74;46.15;100398.53;5082251;28;20084;-66
2023/09/02 10:10:35;;;;;;;0.00;0.00;;;;;;;32.91;46.89;100394.66;5077579;28;20035;-65
2023/09/02 10:13:01;;;;;;;0.00;0.00;;;;;;;33.03;46.35;100401.44;5085989;28;20016;-67
2023/09/02 10:15:30;;;;;;;0.00;0.00;;;;;;;32.78;46.14;100397.13;5081989;28;20109;-66
2023/09/02 10:17:58;;;;;;;0.00;0.00;;;;;;;32.82;47.32;100390.19;5079577;28;20028;-67
2023/09/02 10:20:26;;;;;;;0.00;0.00;;;;;;;33.10;47.61;100393.28;5083794;28;20031;-67
2023/09/02 10:22:53;;;;;;;0.00;0.00;;;;;;;33.39;45.22;100398.91;5066181;28;20031;-66
2023/09/02 10:25:24;;;;;;;0.00;0.00;;;;;;;33.38;46.47;100392.50;5078798;28;20126;-67
2023/09/02 10:28:10;;;;;;;0.00;0.00;;;;;;;33.61;45.98;100391.66;5077664;28;20027;-66
2023/09/02 10:30:46;;;;;;;0.00;0.00;;;;;;;33.80;45.67;100391.09;5085045;28;20054;-66
2023/09/02 10:33:24;;;;;;;0.00;0.00;;;;;;;33.90;46.04;100387.00;5086794;28;20115;-66
2023/09/02 10:35:57;;;;;;;0.00;0.00;;;;;;;33.87;44.11;100375.47;5083554;28;20475;-67
2023/09/02 10:38:24;;;;;;;0.00;0.00;;;;;;;34.00;45.41;100381.22;5083553;28;20024;-67
2023/09/02 10:41:03;;;;;;;0.00;0.00;;;;;;;34.20;43.99;100371.31;5080983;28;20040;-68
2023/09/02 10:43:29;;;;;;;0.00;0.00;;;;;;;34.13;44.58;100381.41;5064554;28;20483;-67
2023/09/02 10:45:55;;;;;;;0.00;0.00;;;;;;;33.93;45.58;100380.25;5059359;28;20028;-64
2023/09/02 10:48:20;;;;;;;0.00;0.00;;;;;;;33.77;44.54;100374.91;5077084;28;20619;-65
2023/09/02 10:50:46;;;;;;;0.00;0.00;;;;;;;33.51;45.47;100369.00;5062760;28;20077;-63
2023/09/02 10:53:12;;;;;;;0.00;0.00;;;;;;;33.93;45.25;100367.31;5079905;28;20031;-63
2023/09/02 10:56:00;;;;;;;0.00;0.00;;;;;;;34.04;43.39;100361.31;5096648;28;20054;-62
2023/09/02 10:58:26;;;;;;;0.00;0.00;;;;;;;34.04;45.86;100360.44;5084187;28;20047;-63
2023/09/02 11:00:52;;;;;;;0.00;0.00;;;;;;;34.45;45.45;100358.88;5071893;28;20028;-62
2023/09/02 11:03:45;;;;;;;0.00;0.00;;;;;;;34.94;44.98;100359.03;5083170;28;20131;-64
2023/09/02 11:06:17;;;;;;;;;;;;;;;35.08;44.57;100366.38;5066815;28;20051;-65
2023/09/02 11:08:49;;;;;;;0.00;0.00;;;;;;;35.34;42.36;100348.09;5068820;28;20339;-65
2023/09/02 11:11:16;;;;;;;0.00;0.00;;;;;;;35.59;43.45;100357.69;5073651;28;20094;-66
2023/09/02 11:14:07;;;;;;;0.00;0.00;;;;;;;35.45;43.43;100358.63;5077100;28;20032;-65
2023/09/02 11:16:40;;;;;;;0.00;0.00;;;;;;;35.29;43.45;100353.38;5044665;28;20481;-66
2023/09/02 11:19:09;;;;;;;0.00;0.00;;;;;;;35.41;43.98;100357.34;5076872;28;20581;-66
2023/09/02 11:21:42;;;;;;;0.00;0.00;;;;;;;35.73;43.57;100356.72;5084060;28;20050;-65